Time;durP1;ratioP1;P1;durP2;ratioP2;P2;SDS_P1;SDS_P2;PMS_P1;PMS_P2;Temp;Humidity;BMP_temperature;BMP_pressure;BME280_temperature;BME280_humidity;BME280_pressure;Samples;Min_cycle;Max_cycle;Signal;HPM_P1;HPM_P2
2023/02/24 00:01:23;;;;;;;38.90;24.98;;;8.60;99.90;;;;;;5027875;28;20033;-71
2023/02/24 00:03:59;;;;;;;43.60;24.73;;;8.60;99.90;;;;;;5014197;28;20061;-74
2023/02/24 00:06:34;;;;;;;41.65;24.80;;;8.60;99.90;;;;;;5008150;28;20037;-70
2023/02/24 00:09:00;;;;;;;43.35;25.88;;;8.60;99.90;;;;;;5020974;28;20041;-72
2023/02/24 00:11:26;;;;;;;41.40;24.48;;;8.60;99.90;;;;;;5014998;28;20022;-70
2023/02/24 00:13:52;;;;;;;48.17;27.38;;;8.60;99.90;;;;;;5025810;28;20050;-74
2023/02/24 00:16:18;;;;;;;52.63;28.65;;;8.60;99.90;;;;;;5031502;28;20083;-72
2023/02/24 00:18:44;;;;;;;45.63;26.83;;;8.60;99.90;;;;;;5025541;28;20021;-70
2023/02/24 00:21:15;;;;;;;48.95;28.17;;;8.60;99.90;;;;;;5015976;28;20730;-69
2023/02/24 00:23:45;;;;;;;45.15;25.70;;;8.60;99.90;;;;;;5013208;28;20429;-71
2023/02/24 00:26:12;;;;;;;;;;;8.60;99.90;;;;;;5020325;28;20224;-71
2023/02/24 00:28:37;;;;;;;50.30;29.00;;;8.60;99.90;;;;;;5014414;28;19916;-69
2023/02/24 00:31:09;;;;;;;51.95;28.83;;;8.70;99.90;;;;;;5011156;28;20030;-69
2023/02/24 00:33:37;;;;;;;46.92;28.20;;;8.80;99.90;;;;;;5020885;28;20215;-69
2023/02/24 00:36:23;;;;;;;45.63;27.00;;;8.90;99.90;;;;;;5017306;28;20046;-69
2023/02/24 00:38:54;;;;;;;52.70;27.27;;;8.90;99.90;;;;;;5016382;28;20034;-73
2023/02/24 00:41:21;;;;;;;47.33;25.83;;;8.90;99.90;;;;;;5021955;28;20033;-69
2023/02/24 00:43:48;;;;;;;40.40;25.23;;;8.90;99.90;;;;;;5027898;28;20026;-74
2023/02/24 00:46:16;;;;;;;51.97;28.55;;;8.90;99.90;;;;;;5017042;28;20478;-69
2023/02/24 00:48:44;;;;;;;50.47;27.50;;;8.80;99.90;;;;;;5017058;28;20100;-70
2023/02/24 00:51:11;;;;;;;46.20;26.85;;;8.80;99.90;;;;;;5026280;28;20025;-68
2023/02/24 00:53:38;;;;;;;47.03;26.70;;;8.80;99.90;;;;;;5016391;28;20041;-69
2023/02/24 00:56:06;;;;;;;43.20;25.95;;;8.80;99.90;;;;;;5026566;28;20026;-69
2023/02/24 00:58:35;;;;;;;46.22;27.38;;;8.90;99.90;;;;;;5025545;28;20389;-69
2023/02/24 01:01:03;;;;;;;44.70;25.83;;;8.90;99.90;;;;;;5024618;28;20034;-68
2023/02/24 01:03:29;;;;;;;42.58;24.65;;;8.90;99.90;;;;;;5015081;28;20033;-70
2023/02/24 01:05:54;;;;;;;44.67;24.80;;;8.90;99.90;;;;;;5018569;28;20066;-69
2023/02/24 01:08:21;;;;;;;40.78;24.08;;;8.90;99.90;;;;;;5020530;28;20033;-70
2023/02/24 01:13:42;;;;;;;48.63;26.98;;;8.90;99.90;;;;;;5011914;28;20129;-69
2023/02/24 01:16:08;;;;;;;41.20;24.58;;;8.90;99.90;;;;;;5022451;28;20536;-69
2023/02/24 01:18:34;;;;;;;46.60;27.08;;;8.90;99.90;;;;;;5023255;28;20038;-69
2023/02/24 01:20:59;;;;;;;47.47;26.55;;;8.80;99.90;;;;;;5012856;28;20046;-68
2023/02/24 01:23:25;;;;;;;45.20;26.33;;;8.80;99.90;;;;;;5024879;28;20125;-70
2023/02/24 01:25:52;;;;;;;41.85;25.45;;;8.90;99.90;;;;;;5017091;28;20463;-72
2023/02/24 01:28:18;;;;;;;42.13;25.92;;;8.80;99.90;;;;;;5014324;28;20026;-69
2023/02/24 01:30:44;;;;;;;36.08;24.20;;;8.90;99.90;;;;;;5011255;28;20083;-69
2023/02/24 01:33:13;;;;;;;42.13;26.48;;;8.90;99.90;;;;;;5020542;28;20030;-69
2023/02/24 01:35:39;;;;;;;48.72;26.88;;;8.80;99.90;;;;;;5013633;28;20481;-69
2023/02/24 01:38:05;;;;;;;43.70;27.52;;;8.90;99.90;;;;;;5015148;28;20374;-69
2023/02/24 01:40:31;;;;;;;48.15;27.52;;;8.90;99.90;;;;;;5019925;28;20104;-69
2023/02/24 01:42:57;;;;;;;46.30;27.95;;;8.90;99.90;;;;;;5015648;28;20034;-68
2023/02/24 01:45:28;;;;;;;44.47;28.17;;;8.90;99.90;;;;;;5011813;28;20327;-72
2023/02/24 01:48:00;;;;;;;45.55;27.23;;;8.90;99.90;;;;;;5011887;28;20033;-69
2023/02/24 01:50:26;;;;;;;41.90;27.35;;;8.90;99.90;;;;;;5018252;28;20033;-69
2023/02/24 01:52:57;;;;;;;42.17;26.92;;;8.90;99.90;;;;;;5019318;28;20026;-71
2023/02/24 01:55:35;;;;;;;37.58;25.13;;;8.80;99.90;;;;;;5018834;28;20112;-69
2023/02/24 01:58:08;;;;;;;37.28;24.40;;;8.90;99.90;;;;;;5022754;28;20022;-71
2023/02/24 02:00:37;;;;;;;36.10;23.77;;;8.80;99.90;;;;;;5015984;28;20026;-69
2023/02/24 02:03:15;;;;;;;36.97;23.17;;;8.70;99.90;;;;;;5023486;28;20079;-68
2023/02/24 02:05:41;;;;;;;34.97;24.17;;;8.80;99.90;;;;;;5016956;28;20444;-68
2023/02/24 02:08:08;;;;;;;42.88;24.27;;;8.70;99.90;;;;;;5016474;28;20061;-69
2023/02/24 02:10:37;;;;;;;35.90;23.45;;;8.80;99.90;;;;;;5011830;28;20030;-69
2023/02/24 02:13:03;;;;;;;34.78;23.08;;;8.70;99.90;;;;;;5015158;28;20148;-73
2023/02/24 02:15:34;;;;;;;45.75;26.73;;;8.70;99.90;;;;;;5024613;28;20505;-70
2023/02/24 02:18:24;;;;;;;37.45;25.38;;;8.60;99.90;;;;;;5001093;28;20040;-69
2023/02/24 02:21:29;;;;;;;37.20;23.98;;;8.60;99.90;;;;;;5011464;28;20046;-74
2023/02/24 02:24:05;;;;;;;47.58;26.25;;;8.50;99.90;;;;;;5021470;28;20037;-69
2023/02/24 02:26:53;;;;;;;46.55;26.58;;;8.50;99.90;;;;;;4998041;28;20033;-69
2023/02/24 02:29:50;;;;;;;43.40;25.95;;;8.40;99.90;;;;;;5016001;28;20301;-69
2023/02/24 02:33:00;;;;;;;40.97;25.65;;;8.40;99.90;;;;;;5020018;28;20038;-70
2023/02/24 02:35:59;;;;;;;38.13;24.73;;;8.40;99.90;;;;;;5014937;28;20045;-69
2023/02/24 02:38:48;;;;;;;44.97;25.10;;;8.40;99.90;;;;;;4960839;28;20289;-69
2023/02/24 02:41:29;;;;;;;41.73;24.17;;;8.40;99.90;;;;;;5014480;28;20026;-70
2023/02/24 02:44:17;;;;;;;39.35;25.10;;;8.30;99.90;;;;;;4996809;28;20454;-70
2023/02/24 02:46:49;;;;;;;43.30;26.00;;;8.30;99.90;;;;;;5019008;28;20091;-69
2023/02/24 02:49:21;;;;;;;44.45;26.13;;;8.30;99.90;;;;;;5020702;28;20026;-70
2023/02/24 02:51:55;;;;;;;45.28;26.48;;;8.20;99.90;;;;;;5019080;28;20394;-71
2023/02/24 02:54:34;;;;;;;46.95;27.58;;;8.20;99.90;;;;;;5011744;28;20483;-69
2023/02/24 02:57:08;;;;;;;47.42;27.45;;;8.20;99.90;;;;;;5030431;28;20048;-69
2023/02/24 02:59:39;;;;;;;42.03;24.85;;;8.20;99.90;;;;;;5017386;28;20026;-69
2023/02/24 03:02:12;;;;;;;42.75;26.58;;;8.20;99.90;;;;;;5020356;28;20373;-69
2023/02/24 03:04:45;;;;;;;42.83;25.63;;;8.20;99.90;;;;;;5021026;28;20045;-70
2023/02/24 03:07:16;;;;;;;44.58;27.67;;;8.20;99.90;;;;;;5029983;28;20048;-69
2023/02/24 03:09:46;;;;;;;44.20;26.23;;;8.20;99.90;;;;;;5022467;28;20029;-70
2023/02/24 03:12:17;;;;;;;42.83;26.33;;;8.20;99.90;;;;;;5024448;28;20041;-69
2023/02/24 03:14:50;;;;;;;44.65;26.45;;;8.20;99.90;;;;;;5023775;28;20073;-68
2023/02/24 03:17:21;;;;;;;41.08;26.75;;;8.20;99.90;;;;;;5020602;28;20104;-69
2023/02/24 03:19:55;;;;;;;41.88;26.20;;;8.20;99.90;;;;;;5023643;28;20025;-71
2023/02/24 03:22:27;;;;;;;51.15;29.00;;;8.20;99.90;;;;;;5020567;28;20493;-69
2023/02/24 03:24:54;;;;;;;46.55;28.95;;;8.30;99.90;;;;;;5017430;28;20032;-69
2023/02/24 03:27:26;;;;;;;45.00;28.00;;;8.30;99.90;;;;;;5020080;28;20056;-69
2023/02/24 03:29:57;;;;;;;47.33;29.48;;;8.30;99.90;;;;;;5019659;28;20030;-69
2023/02/24 03:32:42;;;;;;;45.80;28.42;;;8.30;99.90;;;;;;5028904;28;20049;-69
2023/02/24 03:35:20;;;;;;;46.92;28.73;;;8.20;99.90;;;;;;5016842;28;20042;-69
2023/02/24 03:37:48;;;;;;;53.90;30.00;;;8.20;99.90;;;;;;5018522;28;20037;-69
2023/02/24 03:40:15;;;;;;;45.05;28.00;;;8.20;99.90;;;;;;5014202;28;20061;-70
2023/02/24 03:42:44;;;;;;;49.45;30.77;;;8.20;99.90;;;;;;5025318;28;20037;-70
2023/02/24 03:45:10;;;;;;;46.05;29.65;;;8.20;99.90;;;;;;5018376;28;20088;-69
2023/02/24 03:47:36;;;;;;;47.25;29.08;;;8.20;99.90;;;;;;5018929;28;20034;-69
2023/02/24 03:50:15;;;;;;;50.33;29.63;;;8.20;99.90;;;;;;5019369;28;20382;-68
2023/02/24 03:52:56;;;;;;;48.90;30.88;;;8.20;99.90;;;;;;5022727;28;20069;-69
2023/02/24 03:55:59;;;;;;;55.25;31.15;;;8.20;99.90;;;;;;5026925;28;20034;-69
2023/02/24 03:58:46;;;;;;;52.67;31.13;;;8.20;99.90;;;;;;5019951;28;20037;-69
2023/02/24 04:01:40;;;;;;;53.63;31.30;;;8.20;99.90;;;;;;5020004;28;20029;-68
2023/02/24 04:04:20;;;;;;;53.22;32.45;;;8.20;99.90;;;;;;5020606;28;20065;-68
2023/02/24 04:07:13;;;;;;;50.85;31.80;;;8.20;99.90;;;;;;5020131;28;20021;-68
2023/02/24 04:09:52;;;;;;;57.95;32.35;;;8.20;99.90;;;;;;5016916;28;20466;-68
2023/02/24 04:12:41;;;;;;;55.17;33.65;;;8.30;99.90;;;;;;5015720;28;20033;-69
2023/02/24 04:15:12;;;;;;;57.67;32.03;;;8.30;99.90;;;;;;5001557;28;20928;-68
2023/02/24 04:17:45;;;;;;;53.92;31.60;;;8.30;99.90;;;;;;5015972;28;20034;-68
2023/02/24 04:20:15;;;;;;;56.40;33.53;;;8.40;99.90;;;;;;5013444;28;20026;-68
2023/02/24 04:22:44;;;;;;;54.13;31.55;;;8.40;99.90;;;;;;5018440;28;20406;-68
2023/02/24 04:25:12;;;;;;;64.50;35.17;;;8.40;99.90;;;;;;5013792;28;20493;-68
2023/02/24 04:27:41;;;;;;;60.75;36.33;;;8.40;99.90;;;;;;5023869;28;20080;-67
2023/02/24 04:30:10;;;;;;;67.22;36.47;;;8.40;99.90;;;;;;5024171;28;20053;-69
2023/02/24 04:32:36;;;;;;;63.97;36.45;;;8.40;99.90;;;;;;5021785;28;20033;-69
2023/02/24 04:35:08;;;;;;;71.20;37.92;;;8.40;99.90;;;;;;5017183;28;20109;-68
2023/02/24 04:37:35;;;;;;;66.88;37.03;;;8.30;99.90;;;;;;5017512;28;20541;-69
2023/02/24 04:40:01;;;;;;;79.63;41.08;;;8.30;99.90;;;;;;4996803;28;20069;-69
2023/02/24 04:42:27;;;;;;;73.47;38.75;;;8.30;99.90;;;;;;5016909;28;20046;-69
2023/02/24 04:44:57;;;;;;;84.32;41.22;;;8.20;99.90;;;;;;5029676;28;20541;-70
2023/02/24 04:47:22;;;;;;;77.90;41.13;;;8.20;99.90;;;;;;5020703;28;20494;-69
2023/02/24 04:49:48;;;;;;;85.13;39.95;;;8.20;99.90;;;;;;5021173;28;20065;-73
2023/02/24 04:52:14;;;;;;;72.88;38.50;;;8.20;99.90;;;;;;5024286;28;20116;-69
2023/02/24 04:54:40;;;;;;;69.45;35.28;;;8.20;99.90;;;;;;5018279;28;20085;-74
2023/02/24 04:57:06;;;;;;;71.75;38.40;;;8.10;99.90;;;;;;5012469;28;20025;-70
2023/02/24 04:59:32;;;;;;;73.28;38.25;;;8.10;99.90;;;;;;5020631;28;20025;-69
2023/02/24 05:02:00;;;;;;;68.05;36.83;;;8.10;99.90;;;;;;5015615;28;20405;-69
2023/02/24 05:04:29;;;;;;;75.97;38.47;;;8.10;99.90;;;;;;5017787;28;20037;-70
2023/02/24 05:06:56;;;;;;;69.85;36.28;;;8.10;99.90;;;;;;5025744;28;20542;-68
2023/02/24 05:09:22;;;;;;;71.88;37.47;;;8.10;99.90;;;;;;5012327;28;20032;-68
2023/02/24 05:11:51;;;;;;;74.10;38.10;;;8.00;99.90;;;;;;5026340;28;20099;-73
2023/02/24 05:14:23;;;;;;;80.82;38.92;;;8.00;99.90;;;;;;5016490;28;20542;-68
2023/02/24 05:16:49;;;;;;;79.30;37.00;;;8.00;99.90;;;;;;5016764;28;20025;-72
2023/02/24 05:22:03;;;;;;;76.15;39.22;;;8.00;99.90;;;;;;5015762;28;20108;-67
2023/02/24 05:24:30;;;;;;;80.13;39.97;;;7.90;99.90;;;;;;5015246;28;20080;-69
2023/02/24 05:26:59;;;;;;;81.13;39.97;;;7.90;99.90;;;;;;5020559;28;20022;-69
2023/02/24 05:29:30;;;;;;;75.35;37.80;;;7.90;99.90;;;;;;5027766;28;20029;-67
2023/02/24 05:32:00;;;;;;;80.68;39.22;;;7.90;99.90;;;;;;5012960;28;20045;-68
2023/02/24 05:34:29;;;;;;;76.60;39.05;;;7.90;99.90;;;;;;5016841;28;20018;-68
2023/02/24 05:36:55;;;;;;;81.37;39.40;;;7.90;99.90;;;;;;5012502;28;20030;-69
2023/02/24 05:39:21;;;;;;;79.78;38.50;;;7.80;99.90;;;;;;5026653;28;20033;-68
2023/02/24 05:41:48;;;;;;;77.57;38.60;;;7.80;99.90;;;;;;5023102;28;20079;-71
2023/02/24 05:44:22;;;;;;;82.93;41.08;;;7.80;99.90;;;;;;5013341;28;20164;-67
2023/02/24 05:46:50;;;;;;;83.68;40.17;;;7.80;99.90;;;;;;5018773;28;20034;-70
2023/02/24 05:49:22;;;;;;;74.65;38.75;;;7.80;99.90;;;;;;5023064;28;20094;-68
2023/02/24 05:51:55;;;;;;;75.35;38.30;;;7.80;99.90;;;;;;5017650;28;20041;-71
2023/02/24 05:54:34;;;;;;;79.25;39.20;;;7.80;99.90;;;;;;5026583;28;20029;-67
2023/02/24 05:57:02;;;;;;;83.47;39.25;;;7.80;99.90;;;;;;5012247;28;20036;-68
2023/02/24 05:59:34;;;;;;;78.72;37.40;;;7.90;99.90;;;;;;5024576;28;20033;-68
2023/02/24 06:02:07;;;;;;;84.78;39.78;;;7.80;99.90;;;;;;5017230;28;20064;-68
2023/02/24 06:04:49;;;;;;;81.25;39.40;;;7.80;99.90;;;;;;5018323;28;20034;-67
2023/02/24 06:07:17;;;;;;;82.72;39.67;;;7.80;99.90;;;;;;5016453;28;20486;-68
2023/02/24 06:09:44;;;;;;;75.53;37.83;;;7.80;99.90;;;;;;5026424;28;20033;-69
2023/02/24 06:12:13;;;;;;;81.43;39.47;;;7.80;99.90;;;;;;5022689;28;20135;-69
2023/02/24 06:14:39;;;;;;;81.95;39.47;;;7.80;99.90;;;;;;5018884;28;20095;-69
2023/02/24 06:17:04;;;;;;;81.90;39.63;;;7.80;99.90;;;;;;5013170;28;20062;-67
2023/02/24 06:19:33;;;;;;;78.72;38.00;;;7.80;99.90;;;;;;5016510;28;20442;-68
2023/02/24 06:22:03;;;;;;;74.72;38.13;;;7.80;99.90;;;;;;5016458;28;20037;-68
2023/02/24 06:24:31;;;;;;;89.15;39.67;;;7.80;99.90;;;;;;5018980;28;20356;-68
2023/02/24 06:27:01;;;;;;;87.65;40.13;;;7.80;99.90;;;;;;5019299;28;20110;-69
2023/02/24 06:29:28;;;;;;;84.60;39.60;;;7.80;99.90;;;;;;5020540;28;20475;-69
2023/02/24 06:31:56;;;;;;;89.25;42.17;;;7.80;99.90;;;;;;5013835;28;20049;-68
2023/02/24 06:34:23;;;;;;;82.93;39.22;;;7.80;99.90;;;;;;5000849;28;20529;-69
2023/02/24 06:36:50;;;;;;;90.75;41.42;;;7.80;99.90;;;;;;5015044;28;20033;-76
2023/02/24 06:39:16;;;;;;;90.13;41.75;;;7.90;99.90;;;;;;5016667;28;20030;-70
2023/02/24 06:41:41;;;;;;;89.47;42.40;;;7.90;99.90;;;;;;5016899;28;20441;-67
2023/02/24 06:44:08;;;;;;;81.90;39.88;;;7.90;99.90;;;;;;5012662;28;20030;-67
2023/02/24 06:46:34;;;;;;;90.70;41.67;;;7.90;99.90;;;;;;5013368;28;20030;-66
2023/02/24 06:49:00;;;;;;;86.25;41.25;;;7.90;99.90;;;;;;5014090;28;20051;-69
2023/02/24 06:51:28;;;;;;;83.15;38.78;;;7.90;99.90;;;;;;5016429;28;20030;-67
2023/02/24 06:53:55;;;;;;;94.07;42.08;;;7.90;99.90;;;;;;5015232;28;20116;-70
2023/02/24 06:56:21;;;;;;;91.13;41.97;;;7.80;99.90;;;;;;5015316;28;20084;-67
2023/02/24 06:58:52;;;;;;;87.30;38.95;;;7.80;99.90;;;;;;5019171;28;20041;-76
2023/02/24 07:01:24;;;;;;;92.50;42.03;;;7.80;99.90;;;;;;5015032;28;20112;-68
2023/02/24 07:06:35;;;;;;;75.40;36.90;;;7.80;99.90;;;;;;5017371;28;20018;-67
2023/02/24 07:09:04;;;;;;;89.88;40.28;;;7.80;99.90;;;;;;5015429;28;20084;-68
2023/02/24 07:11:30;;;;;;;92.68;41.90;;;7.80;99.90;;;;;;5015752;28;20049;-68
2023/02/24 07:13:57;;;;;;;88.47;40.45;;;7.80;99.90;;;;;;5014635;28;20073;-68
2023/02/24 07:16:23;;;;;;;88.38;41.05;;;7.80;99.90;;;;;;5017842;28;20030;-69
2023/02/24 07:18:56;;;;;;;87.63;41.35;;;7.90;99.90;;;;;;4999547;28;20391;-73
2023/02/24 07:21:28;;;;;;;89.57;41.22;;;7.90;99.90;;;;;;5015668;28;20034;-69
2023/02/24 07:23:55;;;;;;;88.25;40.15;;;7.90;99.90;;;;;;5016522;28;20482;-69
2023/02/24 07:26:23;;;;;;;95.90;42.80;;;7.90;99.90;;;;;;5017180;28;20109;-69
2023/02/24 07:28:50;;;;;;;88.93;41.72;;;7.90;99.90;;;;;;5016597;28;20037;-73
2023/02/24 07:31:19;;;;;;;90.57;43.42;;;8.00;99.90;;;;;;5010967;28;20021;-69
2023/02/24 07:33:45;;;;;;;88.47;43.72;;;8.00;99.90;;;;;;5026901;28;20508;-69
2023/02/24 07:36:14;;;;;;;99.05;44.03;;;8.10;99.90;;;;;;5021619;28;20029;-70
2023/02/24 07:38:41;;;;;;;99.90;45.28;;;8.10;99.90;;;;;;5016216;28;20038;-68
2023/02/24 07:41:11;;;;;;;97.47;44.75;;;8.10;99.90;;;;;;5015910;28;20774;-70
2023/02/24 07:43:38;;;;;;;94.18;43.92;;;8.10;99.90;;;;;;5017742;28;20037;-69
2023/02/24 07:46:12;;;;;;;97.00;44.05;;;8.00;99.90;;;;;;5009154;28;20034;-69
2023/02/24 07:48:40;;;;;;;107.30;47.65;;;8.00;99.90;;;;;;5022557;28;20132;-68
2023/02/24 07:51:11;;;;;;;96.65;43.58;;;8.00;99.90;;;;;;5022892;28;20079;-68
2023/02/24 07:53:40;;;;;;;94.85;46.33;;;8.10;99.90;;;;;;5027040;28;20041;-69
2023/02/24 07:56:12;;;;;;;92.23;43.37;;;8.10;99.90;;;;;;5022812;28;20487;-70
2023/02/24 07:58:52;;;;;;;100.90;45.05;;;8.10;99.90;;;;;;5001758;28;20276;-68
2023/02/24 08:01:26;;;;;;;103.05;47.15;;;8.10;99.90;;;;;;5015794;28;20065;-68
2023/02/24 08:03:56;;;;;;;100.18;44.13;;;8.10;99.90;;;;;;5024903;28;20474;-71
2023/02/24 08:06:26;;;;;;;97.80;44.63;;;8.00;99.90;;;;;;5025577;28;20026;-68
2023/02/24 08:08:57;;;;;;;101.88;46.60;;;8.10;99.90;;;;;;5016431;28;20450;-72
2023/02/24 08:11:34;;;;;;;102.68;46.25;;;8.10;99.90;;;;;;5025043;28;20029;-68
2023/02/24 08:14:01;;;;;;;106.80;47.08;;;8.10;99.90;;;;;;5027483;28;20069;-68
2023/02/24 08:16:38;;;;;;;111.75;48.65;;;8.20;99.90;;;;;;5022021;28;20061;-68
2023/02/24 08:19:05;;;;;;;106.07;47.97;;;8.20;99.90;;;;;;5021435;28;20386;-69
2023/02/24 08:21:37;;;;;;;109.68;46.75;;;8.20;99.90;;;;;;5017372;28;20423;-69
2023/02/24 08:24:04;;;;;;;104.60;46.65;;;8.20;99.90;;;;;;5019947;28;20026;-69
2023/02/24 08:26:30;;;;;;;102.60;46.03;;;8.20;99.90;;;;;;5022417;28;20087;-69
2023/02/24 08:28:56;;;;;;;111.25;48.28;;;8.10;99.90;;;;;;5028133;28;20037;-69
2023/02/24 08:31:22;;;;;;;104.88;45.70;;;8.20;99.90;;;;;;5022078;28;20482;-70
2023/02/24 08:33:55;;;;;;;109.90;48.92;;;8.20;99.90;;;;;;5021706;28;20038;-73
2023/02/24 08:36:20;;;;;;;94.10;42.95;;;8.30;99.90;;;;;;5025135;28;20046;-68
2023/02/24 08:38:50;;;;;;;84.30;40.83;;;8.60;99.90;;;;;;5018267;28;20037;-70
2023/02/24 08:41:19;;;;;;;71.50;34.55;;;8.80;99.90;;;;;;5021290;28;20111;-68
2023/02/24 08:43:47;;;;;;;68.85;35.10;;;9.10;99.90;;;;;;5016321;28;20042;-70
2023/02/24 08:46:20;;;;;;;57.00;31.08;;;9.50;99.90;;;;;;5028405;28;20109;-69
2023/02/24 08:48:54;;;;;;;58.03;29.95;;;9.70;99.90;;;;;;5028936;28;20029;-69
2023/02/24 08:51:33;;;;;;;50.00;27.98;;;10.00;99.90;;;;;;5021404;28;20120;-68
2023/02/24 08:54:14;;;;;;;59.08;29.67;;;10.30;99.90;;;;;;5023734;28;20046;-69
2023/02/24 08:56:47;;;;;;;44.95;25.85;;;10.60;99.90;;;;;;5021334;28;20033;-68
2023/02/24 09:02:17;;;;;;;40.95;24.52;;;11.10;99.90;;;;;;5022802;28;20121;-69
2023/02/24 09:04:50;;;;;;;40.33;24.58;;;11.20;99.90;;;;;;5026612;28;20030;-69
2023/02/24 09:07:18;;;;;;;44.47;24.02;;;11.30;99.90;;;;;;5023137;28;20482;-69
2023/02/24 09:09:44;;;;;;;39.05;23.52;;;11.20;99.90;;;;;;5018055;28;20145;-69
2023/02/24 09:12:20;;;;;;;32.50;20.13;;;11.10;99.90;;;;;;5015232;28;20112;-70
2023/02/24 09:14:48;;;;;;;47.60;26.08;;;10.90;99.90;;;;;;5016741;28;20049;-68
2023/02/24 09:17:19;;;;;;;74.60;37.25;;;10.90;99.90;;;;;;5027810;28;20076;-69
2023/02/24 09:22:39;;;;;;;80.60;39.03;;;10.60;99.90;;;;;;5021957;28;20029;-69
2023/02/24 09:25:22;;;;;;;75.10;38.47;;;10.40;99.90;;;;;;5021426;28;20476;-68
2023/02/24 09:27:54;;;;;;;79.60;38.20;;;10.30;99.90;;;;;;5018449;28;20041;-72
2023/02/24 09:30:35;;;;;;;85.28;38.95;;;10.20;99.90;;;;;;5013506;28;20030;-68
2023/02/24 09:33:05;;;;;;;76.60;38.53;;;10.10;99.90;;;;;;5024356;28;20220;-68
2023/02/24 09:35:35;;;;;;;71.68;37.65;;;10.10;99.90;;;;;;5021027;28;20049;-68
2023/02/24 09:38:04;;;;;;;68.85;36.78;;;10.10;99.90;;;;;;5022440;28;20123;-69
2023/02/24 09:40:39;;;;;;;75.50;36.50;;;10.20;99.90;;;;;;5016356;28;20073;-68
2023/02/24 09:43:16;;;;;;;59.53;31.98;;;10.20;99.90;;;;;;5019893;28;20034;-69
2023/02/24 09:45:57;;;;;;;63.45;35.67;;;10.10;99.90;;;;;;5019225;28;20509;-69
2023/02/24 09:48:42;;;;;;;69.85;34.53;;;10.10;99.90;;;;;;5019634;28;20062;-69
2023/02/24 09:51:20;;;;;;;59.22;31.23;;;10.10;99.90;;;;;;5016005;28;20116;-69
2023/02/24 09:53:55;;;;;;;52.25;27.10;;;10.10;99.90;;;;;;5030091;28;20517;-69
2023/02/24 09:56:41;;;;;;;48.08;26.02;;;10.20;99.90;;;;;;5020520;28;20034;-69
2023/02/24 09:59:34;;;;;;;44.95;24.95;;;10.40;99.90;;;;;;5018202;28;20048;-69
2023/02/24 10:02:42;;;;;;;41.75;22.58;;;10.60;99.90;;;;;;5023614;28;20033;-69
2023/02/24 10:05:14;;;;;;;37.25;19.13;;;10.80;99.90;;;;;;5016441;28;20258;-69
2023/02/24 10:07:42;;;;;;;40.13;18.65;;;11.00;99.90;;;;;;5022792;28;20494;-69
2023/02/24 10:10:18;;;;;;;32.13;17.70;;;11.20;99.90;;;;;;5026908;28;20076;-68
2023/02/24 10:13:11;;;;;;;34.58;17.00;;;11.50;99.90;;;;;;5017852;28;20045;-69
2023/02/24 10:15:57;;;;;;;39.63;20.23;;;11.60;99.90;;;;;;5013014;28;20029;-69
2023/02/24 10:18:59;;;;;;;42.55;22.15;;;11.90;99.90;;;;;;5018712;28;20059;-69
2023/02/24 10:22:01;;;;;;;51.53;25.92;;;12.00;99.90;;;;;;5013921;28;20624;-68
2023/02/24 10:24:40;;;;;;;48.88;24.38;;;11.90;99.90;;;;;;5014655;28;20025;-69
2023/02/24 10:27:15;;;;;;;44.15;22.67;;;11.70;99.90;;;;;;5015909;28;20032;-69
2023/02/24 10:30:02;;;;;;;46.10;21.38;;;11.60;99.90;;;;;;5019325;28;20052;-69
2023/02/24 10:32:45;;;;;;;41.75;21.02;;;11.60;99.90;;;;;;5019726;28;20048;-69
2023/02/24 10:35:17;;;;;;;42.08;19.80;;;11.50;99.90;;;;;;5021405;28;20374;-69
2023/02/24 10:37:43;;;;;;;36.50;18.50;;;11.40;99.90;;;;;;5018059;28;20121;-69
2023/02/24 10:40:11;;;;;;;32.25;17.58;;;11.30;99.90;;;;;;5017046;28;20021;-69
2023/02/24 10:42:47;;;;;;;35.63;16.30;;;11.20;99.90;;;;;;5014528;28;20034;-69
2023/02/24 10:45:16;;;;;;;27.17;15.32;;;11.10;99.90;;;;;;5020583;28;20092;-70
2023/02/24 10:47:44;;;;;;;28.80;15.18;;;10.90;99.90;;;;;;5016325;28;20407;-69
2023/02/24 10:50:43;;;;;;;32.75;16.15;;;10.90;99.90;;;;;;5021140;28;20108;-69
2023/02/24 10:53:33;;;;;;;38.10;16.48;;;10.70;99.90;;;;;;5015722;28;20037;-69
2023/02/24 10:56:59;;;;;;;37.05;17.95;;;10.60;99.90;;;;;;5012759;28;20036;-69
2023/02/24 10:59:19;;;;;;;30.58;16.50;;;10.60;99.90;;;;;;5002248;28;20467;-71
2023/02/24 11:01:58;;;;;;;34.58;16.77;;;10.50;99.90;;;;;;5013082;28;20057;-69
2023/02/24 11:05:03;;;;;;;40.13;17.38;;;10.60;99.90;;;;;;5025092;28;20040;-68
2023/02/24 11:07:52;;;;;;;43.90;23.05;;;10.70;99.90;;;;;;5022934;28;20427;-68
2023/02/24 11:11:05;;;;;;;48.42;23.52;;;10.80;99.90;;;;;;5016340;28;20365;-68
2023/02/24 11:18:58;;;;;;;52.97;26.10;;;10.90;99.90;;;;;;5017819;28;20115;-69
2023/02/24 11:21:25;;;;;;;57.83;26.63;;;10.80;99.90;;;;;;5017062;28;20081;-69
2023/02/24 11:23:55;;;;;;;59.20;28.00;;;10.80;99.90;;;;;;5020443;28;20379;-73
2023/02/24 11:26:36;;;;;;;54.45;27.40;;;10.80;99.90;;;;;;5020365;28;20032;-70
2023/02/24 11:29:19;;;;;;;58.75;27.23;;;10.80;99.90;;;;;;5021064;28;20398;-69
2023/02/24 11:32:12;;;;;;;53.90;26.50;;;10.70;99.90;;;;;;5023198;28;20025;-70
2023/02/24 11:34:48;;;;;;;49.17;24.25;;;10.70;99.90;;;;;;5015913;28;20487;-69
2023/02/24 11:37:16;;;;;;;55.25;25.52;;;10.60;99.90;;;;;;5021708;28;20026;-68
2023/02/24 11:40:07;;;;;;;52.53;23.80;;;10.50;99.90;;;;;;5019793;28;20080;-69
2023/02/24 11:42:40;;;;;;;61.08;23.75;;;10.50;99.90;;;;;;5012775;28;20121;-68
2023/02/24 11:45:25;;;;;;;54.33;26.02;;;10.40;99.90;;;;;;5013615;28;20368;-70
2023/02/24 11:47:59;;;;;;;53.83;23.95;;;10.40;99.90;;;;;;5018286;28;20037;-72
2023/02/24 11:50:49;;;;;;;54.55;24.77;;;10.30;99.90;;;;;;5013641;28;20037;-70
2023/02/24 11:53:44;;;;;;;62.37;25.03;;;10.30;99.90;;;;;;5025158;28;20037;-71
2023/02/24 11:56:27;;;;;;;48.47;23.80;;;10.20;99.90;;;;;;5015558;28;20030;-72
2023/02/24 11:59:15;;;;;;;52.13;24.55;;;10.30;99.90;;;;;;5011239;28;20061;-70
2023/02/24 12:02:13;;;;;;;55.90;25.20;;;10.30;99.90;;;;;;5012843;28;20030;-73
2023/02/24 12:04:49;;;;;;;52.63;24.98;;;10.30;99.90;;;;;;5017316;28;20037;-73
2023/02/24 12:07:19;;;;;;;54.67;24.33;;;10.40;99.90;;;;;;5013251;28;20026;-77
2023/02/24 12:09:52;;;;;;;56.03;23.50;;;10.50;99.90;;;;;;5021311;28;20040;-78
2023/02/24 12:12:40;;;;;;;53.00;24.05;;;10.60;99.90;;;;;;5025150;28;20042;-77
2023/02/24 12:15:39;;;;;;;52.88;23.25;;;10.70;99.90;;;;;;5013427;28;20061;-75
2023/02/24 12:18:23;;;;;;;53.35;22.83;;;10.90;99.90;;;;;;5015935;28;20029;-70
2023/02/24 12:20:59;;;;;;;53.65;24.00;;;11.10;99.90;;;;;;5016845;28;20467;-69
2023/02/24 12:23:38;;;;;;;45.10;23.48;;;11.30;99.90;;;;;;5019323;28;20105;-72
2023/02/24 12:26:18;;;;;;;49.15;21.60;;;11.60;99.90;;;;;;5021152;28;20060;-74
2023/02/24 12:29:09;;;;;;;47.35;22.60;;;11.80;99.90;;;;;;5016507;28;20059;-72
2023/02/24 12:31:59;;;;;;;37.63;19.13;;;12.00;99.90;;;;;;5018193;28;20068;-72
2023/02/24 12:35:12;;;;;;;32.78;17.13;;;12.20;99.90;;;;;;5016922;28;20446;-76
2023/02/24 12:38:13;;;;;;;30.00;14.63;;;12.50;99.90;;;;;;4949887;28;20043;-74
2023/02/24 12:40:48;;;;;;;31.23;13.98;;;12.70;99.90;;;;;;5003165;28;20033;-75
2023/02/24 12:43:34;;;;;;;30.45;13.75;;;12.90;99.90;;;;;;5020840;28;20095;-76
2023/02/24 12:46:18;;;;;;;31.45;13.30;;;13.20;99.90;;;;;;5017642;28;20433;-77
2023/02/24 12:49:18;;;;;;;22.13;10.70;;;13.40;99.90;;;;;;5020844;28;20045;-76
2023/02/24 12:52:08;;;;;;;27.23;10.68;;;13.40;99.90;;;;;;5018673;28;20033;-76
2023/02/24 12:54:40;;;;;;;30.30;13.15;;;13.30;99.90;;;;;;5017540;28;20505;-74
2023/02/24 12:57:21;;;;;;;28.38;11.85;;;13.30;99.90;;;;;;5021954;28;20041;-74
2023/02/24 12:59:47;;;;;;;27.27;12.73;;;13.20;99.90;;;;;;5017475;28;20058;-74
2023/02/24 13:02:28;;;;;;;30.70;13.10;;;13.00;99.90;;;;;;5015433;28;20046;-74
2023/02/24 13:05:27;;;;;;;24.95;12.27;;;12.80;99.90;;;;;;5015561;28;20058;-77
2023/02/24 13:08:20;;;;;;;29.67;13.10;;;12.60;99.90;;;;;;5012858;28;20018;-72
2023/02/24 13:11:04;;;;;;;29.75;12.60;;;12.40;99.90;;;;;;5013387;28;20034;-75
2023/02/24 13:14:03;;;;;;;29.58;12.98;;;12.20;99.90;;;;;;5013545;28;20145;-76
2023/02/24 13:16:33;;;;;;;32.97;14.45;;;12.10;99.90;;;;;;4994941;28;20073;-76
2023/02/24 13:19:26;;;;;;;35.92;15.32;;;12.10;99.90;;;;;;5017449;28;20064;-76
2023/02/24 13:22:01;;;;;;;29.20;15.43;;;12.00;99.90;;;;;;5009222;28;20029;-75
2023/02/24 13:24:27;;;;;;;33.17;15.52;;;11.90;99.90;;;;;;5021408;28;20036;-76
2023/02/24 13:27:04;;;;;;;26.63;12.95;;;11.90;99.90;;;;;;5021068;28;20029;-77
2023/02/24 13:29:29;;;;;;;26.02;13.02;;;11.80;99.90;;;;;;5013742;28;20053;-76